Time;durP1;ratioP1;P1;durP2;ratioP2;P2;SDS_P1;SDS_P2;PMS_P1;PMS_P2;Temp;Humidity;BMP_temperature;BMP_pressure;BME280_temperature;BME280_humidity;BME280_pressure;Samples;Min_cycle;Max_cycle;Signal;HPM_P1;HPM_P2
2021/06/02 00:00:48;;;;;;;12.20;9.18;;;;;;;;;;5071861;28;20046;-76
2021/06/02 00:03:32;;;;;;;11.43;9.57;;;;;;;;;;5071626;28;20086;-75
2021/06/02 00:06:17;;;;;;;12.68;9.40;;;;;;;;;;5071538;28;20124;-76
2021/06/02 00:09:01;;;;;;;12.98;9.90;;;;;;;;;;5057364;28;20085;-76
2021/06/02 00:11:46;;;;;;;11.07;9.35;;;;;;;;;;5086762;28;20098;-75
2021/06/02 00:14:30;;;;;;;12.68;9.50;;;;;;;;;;5057479;28;20152;-75
2021/06/02 00:17:16;;;;;;;11.07;9.23;;;;;;;;;;5057129;28;20070;-76
2021/06/02 00:20:01;;;;;;;11.77;9.45;;;;;;;;;;5071165;28;20066;-76
2021/06/02 00:22:46;;;;;;;13.82;9.73;;;;;;;;;;5057121;28;20472;-76
2021/06/02 00:25:30;;;;;;;12.55;9.80;;;;;;;;;;5071350;28;20076;-75
2021/06/02 00:28:15;;;;;;;14.90;9.43;;;;;;;;;;5071362;28;20050;-76
2021/06/02 00:31:00;;;;;;;12.25;9.40;;;;;;;;;;5071125;28;20085;-76
2021/06/02 00:33:45;;;;;;;13.07;9.68;;;;;;;;;;5071167;28;20399;-76
2021/06/02 00:36:29;;;;;;;10.80;8.95;;;;;;;;;;5070956;28;20039;-75
2021/06/02 00:39:14;;;;;;;10.65;8.93;;;;;;;;;;5056659;28;20077;-76
2021/06/02 00:41:58;;;;;;;11.13;9.15;;;;;;;;;;5071097;28;20111;-79
2021/06/02 00:44:44;;;;;;;12.75;10.35;;;;;;;;;;5057161;28;20073;-76
2021/06/02 00:47:28;;;;;;;12.50;9.07;;;;;;;;;;5086244;28;20405;-76
2021/06/02 00:50:13;;;;;;;10.38;8.95;;;;;;;;;;5086375;28;20042;-76
2021/06/02 00:52:58;;;;;;;11.50;9.00;;;;;;;;;;5056669;28;20078;-77
2021/06/02 00:55:43;;;;;;;11.05;8.95;;;;;;;;;;5056666;28;20047;-76
2021/06/02 00:58:28;;;;;;;11.02;9.02;;;;;;;;;;5056926;28;20047;-76
2021/06/02 01:01:14;;;;;;;12.70;8.93;;;;;;;;;;5070905;28;20046;-75
2021/06/02 01:03:58;;;;;;;9.63;8.63;;;;;;;;;;5086083;28;20162;-76
2021/06/02 01:06:44;;;;;;;10.82;8.85;;;;;;;;;;5070697;28;20388;-76
2021/06/02 01:09:29;;;;;;;13.05;8.55;;;;;;;;;;5072740;28;20043;-77
2021/06/02 01:12:17;;;;;;;10.95;9.20;;;;;;;;;;5090266;28;20123;-76
2021/06/02 01:15:02;;;;;;;11.50;8.70;;;;;;;;;;5061029;28;20576;-76
2021/06/02 01:17:47;;;;;;;10.93;9.05;;;;;;;;;;5074642;28;20138;-75
2021/06/02 01:20:32;;;;;;;12.15;8.88;;;;;;;;;;5074814;28;20745;-75
2021/06/02 01:23:16;;;;;;;12.10;8.93;;;;;;;;;;5060600;28;20043;-76
2021/06/02 01:26:00;;;;;;;11.25;8.05;;;;;;;;;;5060336;28;20416;-76
2021/06/02 01:28:45;;;;;;;9.40;8.38;;;;;;;;;;5060572;28;20032;-76
2021/06/02 01:31:41;;;;;;;10.85;8.38;;;;;;;;;;5090000;28;20127;-76
2021/06/02 01:34:28;;;;;;;10.90;8.43;;;;;;;;;;5074848;28;20039;-76
2021/06/02 01:37:13;;;;;;;10.40;8.50;;;;;;;;;;5074612;28;20140;-76
2021/06/02 01:40:01;;;;;;;10.60;8.43;;;;;;;;;;5089856;28;20542;-76
2021/06/02 01:42:50;;;;;;;10.02;8.57;;;;;;;;;;5074276;28;20039;-76
2021/06/02 01:45:34;;;;;;;14.38;8.75;;;;;;;;;;5074612;28;20523;-75
2021/06/02 01:48:37;;;;;;;12.45;8.50;;;;;;;;;;5092341;28;20082;-75
2021/06/02 01:51:22;;;;;;;11.40;8.77;;;;;;;;;;5092013;28;20050;-75
2021/06/02 01:54:25;;;;;;;10.50;8.15;;;;;;;;;;5091911;28;20129;-76
2021/06/02 01:57:29;;;;;;;11.45;8.32;;;;;;;;;;5076567;28;20078;-75
2021/06/02 02:00:33;;;;;;;10.45;8.15;;;;;;;;;;5091794;28;20051;-75
2021/06/02 02:03:30;;;;;;;11.45;8.55;;;;;;;;;;5091279;28;20071;-75
2021/06/02 02:06:17;;;;;;;10.32;8.80;;;;;;;;;;5091727;28;20067;-75
2021/06/02 02:09:06;;;;;;;10.73;8.55;;;;;;;;;;5076244;28;20170;-76
2021/06/02 02:11:51;;;;;;;10.07;8.35;;;;;;;;;;5076227;28;20541;-75
2021/06/02 02:14:47;;;;;;;9.85;8.40;;;;;;;;;;5076128;28;20084;-75
2021/06/02 02:17:38;;;;;;;10.40;8.75;;;;;;;;;;5076052;28;20054;-75
2021/06/02 02:20:42;;;;;;;10.13;8.10;;;;;;;;;;5090890;28;20611;-75
2021/06/02 02:23:29;;;;;;;11.20;8.27;;;;;;;;;;5091257;28;20073;-76
2021/06/02 02:26:43;;;;;;;9.85;7.57;;;;;;;;;;5075785;28;20113;-75
2021/06/02 02:29:44;;;;;;;10.27;8.43;;;;;;;;;;5015514;28;20180;-76
2021/06/02 02:32:39;;;;;;;10.82;7.88;;;;;;;;;;5091137;28;20060;-76
2021/06/02 02:35:42;;;;;;;12.50;8.35;;;;;;;;;;5075815;28;20043;-75
2021/06/02 02:38:46;;;;;;;9.45;7.93;;;;;;;;;;5075596;28;20042;-75
2021/06/02 02:41:37;;;;;;;11.75;8.40;;;;;;;;;;5075629;28;20217;-76
2021/06/02 02:44:41;;;;;;;9.55;7.85;;;;;;;;;;5090994;28;20461;-75
2021/06/02 02:47:45;;;;;;;10.82;8.23;;;;;;;;;;5090864;28;20097;-75
2021/06/02 02:50:35;;;;;;;10.75;8.00;;;;;;;;;;5090789;28;20039;-75
2021/06/02 02:53:20;;;;;;;9.50;7.72;;;;;;;;;;5090807;28;20085;-75
2021/06/02 02:56:10;;;;;;;9.60;7.50;;;;;;;;;;5075381;28;20071;-75
2021/06/02 02:58:58;;;;;;;9.75;8.15;;;;;;;;;;5075308;28;20152;-75
2021/06/02 03:01:45;;;;;;;11.63;7.85;;;;;;;;;;5075327;28;20514;-75
2021/06/02 03:04:31;;;;;;;9.73;7.93;;;;;;;;;;5061103;28;20065;-75
2021/06/02 03:07:16;;;;;;;10.07;8.00;;;;;;;;;;5075246;28;20066;-75
2021/06/02 03:10:07;;;;;;;10.38;7.60;;;;;;;;;;5090421;28;20045;-75
2021/06/02 03:13:02;;;;;;;13.57;8.32;;;;;;;;;;5075152;28;20094;-76
2021/06/02 03:15:52;;;;;;;9.02;7.65;;;;;;;;;;5075206;28;20077;-75
2021/06/02 03:18:40;;;;;;;10.27;7.90;;;;;;;;;;5060938;28;20128;-75
2021/06/02 03:21:40;;;;;;;9.77;7.90;;;;;;;;;;5074978;28;20487;-75
2021/06/02 03:24:37;;;;;;;11.98;7.78;;;;;;;;;;5090186;28;20149;-75
2021/06/02 03:27:34;;;;;;;10.20;7.95;;;;;;;;;;5090140;28;20086;-75
2021/06/02 03:30:28;;;;;;;10.80;7.53;;;;;;;;;;5090007;28;20112;-75
2021/06/02 03:33:28;;;;;;;10.85;7.65;;;;;;;;;;5073959;28;20176;-76
2021/06/02 03:36:22;;;;;;;9.05;7.32;;;;;;;;;;5089760;28;20050;-76
2021/06/02 03:39:08;;;;;;;10.85;7.78;;;;;;;;;;5074532;28;20051;-75
2021/06/02 03:41:57;;;;;;;10.27;7.70;;;;;;;;;;5060360;28;20047;-75
2021/06/02 03:44:51;;;;;;;10.30;8.13;;;;;;;;;;5074516;28;20055;-75
2021/06/02 03:47:39;;;;;;;8.98;7.93;;;;;;;;;;5074347;28;20082;-76
2021/06/02 03:50:24;;;;;;;9.40;7.90;;;;;;;;;;5074215;28;20093;-75
2021/06/02 03:53:20;;;;;;;9.70;7.45;;;;;;;;;;5060289;28;20035;-75
2021/06/02 03:56:18;;;;;;;10.45;8.30;;;;;;;;;;5060249;28;20039;-75
2021/06/02 03:59:04;;;;;;;9.63;7.22;;;;;;;;;;5074097;28;20112;-76
2021/06/02 04:01:49;;;;;;;9.52;7.93;;;;;;;;;;5074261;28;20039;-76
2021/06/02 04:04:35;;;;;;;11.57;7.18;;;;;;;;;;5074023;28;20074;-76
2021/06/02 04:07:23;;;;;;;9.90;8.02;;;;;;;;;;5060132;28;20119;-75
2021/06/02 04:10:09;;;;;;;8.77;7.28;;;;;;;;;;5074105;28;20059;-76
2021/06/02 04:13:14;;;;;;;10.85;7.60;;;;;;;;;;5088760;28;20070;-75
2021/06/02 04:16:09;;;;;;;11.02;7.97;;;;;;;;;;5059858;28;20047;-76
2021/06/02 04:18:54;;;;;;;9.45;7.82;;;;;;;;;;5059965;28;20051;-75
2021/06/02 04:21:40;;;;;;;10.65;7.60;;;;;;;;;;5073853;28;20050;-75
2021/06/02 04:24:24;;;;;;;12.43;8.20;;;;;;;;;;5073935;28;20147;-75
2021/06/02 04:27:09;;;;;;;9.32;7.75;;;;;;;;;;5073862;28;20059;-75
2021/06/02 04:29:53;;;;;;;9.18;7.70;;;;;;;;;;5073659;28;20085;-75
2021/06/02 04:32:40;;;;;;;9.00;7.65;;;;;;;;;;5073474;28;20523;-75
2021/06/02 04:35:25;;;;;;;11.43;8.00;;;;;;;;;;5073756;28;20051;-75
2021/06/02 04:38:10;;;;;;;8.50;7.00;;;;;;;;;;5088966;28;20126;-75
2021/06/02 04:40:54;;;;;;;12.45;7.82;;;;;;;;;;5088809;28;20065;-75
2021/06/02 04:43:39;;;;;;;9.30;7.40;;;;;;;;;;5073374;28;20043;-75
2021/06/02 04:46:24;;;;;;;9.48;7.97;;;;;;;;;;5088855;28;20408;-76
2021/06/02 04:49:08;;;;;;;10.40;8.07;;;;;;;;;;5071479;28;20131;-76
2021/06/02 04:52:01;;;;;;;10.00;7.78;;;;;;;;;;5086829;28;20051;-76
2021/06/02 04:55:03;;;;;;;11.60;7.65;;;;;;;;;;5072215;28;20088;-75
2021/06/02 04:58:08;;;;;;;9.25;7.30;;;;;;;;;;5057723;28;20086;-75
2021/06/02 05:01:05;;;;;;;8.57;6.97;;;;;;;;;;5087323;28;20541;-75
2021/06/02 05:03:52;;;;;;;9.45;7.57;;;;;;;;;;5087122;28;20100;-75
2021/06/02 05:06:45;;;;;;;9.55;7.18;;;;;;;;;;5087456;28;20043;-76
2021/06/02 05:09:37;;;;;;;8.50;6.53;;;;;;;;;;5072181;28;20043;-76
2021/06/02 05:12:40;;;;;;;9.75;7.40;;;;;;;;;;5057877;28;20042;-76
2021/06/02 05:15:31;;;;;;;8.13;7.00;;;;;;;;;;5087110;28;20082;-76
2021/06/02 05:18:19;;;;;;;10.00;7.55;;;;;;;;;;5087262;28;20217;-76
2021/06/02 05:24:00;;;;;;;7.95;7.00;;;;;;;;;;5087148;28;20052;-75
2021/06/02 05:27:04;;;;;;;9.88;7.60;;;;;;;;;;5087763;28;20556;-76
2021/06/02 05:30:01;;;;;;;9.27;6.90;;;;;;;;;;5086386;28;20051;-76
2021/06/02 05:33:04;;;;;;;7.70;6.25;;;;;;;;;;5086200;28;20035;-75
2021/06/02 05:36:01;;;;;;;7.88;7.05;;;;;;;;;;5071099;28;20075;-77
2021/06/02 05:39:02;;;;;;;8.73;7.38;;;;;;;;;;5070757;28;20074;-77
2021/06/02 05:41:53;;;;;;;9.05;6.45;;;;;;;;;;5071345;28;20038;-76
2021/06/02 05:44:52;;;;;;;7.20;6.25;;;;;;;;;;5086305;28;20034;-76
2021/06/02 05:47:57;;;;;;;8.73;6.95;;;;;;;;;;5085880;28;20151;-76
2021/06/02 05:50:53;;;;;;;11.50;6.97;;;;;;;;;;5067085;28;20051;-76
2021/06/02 05:53:50;;;;;;;8.95;7.30;;;;;;;;;;5070417;28;20101;-77
2021/06/02 05:56:38;;;;;;;7.80;6.60;;;;;;;;;;5089354;28;20047;-76
2021/06/02 05:59:37;;;;;;;9.38;6.20;;;;;;;;;;5074134;28;20582;-76
2021/06/02 06:02:25;;;;;;;8.30;6.88;;;;;;;;;;5074062;28;20035;-76
2021/06/02 06:05:28;;;;;;;8.00;6.40;;;;;;;;;;5089460;28;20074;-76
2021/06/02 06:08:13;;;;;;;8.60;6.70;;;;;;;;;;5089242;28;20039;-76
2021/06/02 06:11:16;;;;;;;7.10;6.32;;;;;;;;;;5073697;28;20093;-76
2021/06/02 06:14:01;;;;;;;7.78;6.20;;;;;;;;;;5089251;28;20043;-76
2021/06/02 06:17:05;;;;;;;8.77;6.32;;;;;;;;;;5073576;28;20109;-76
2021/06/02 06:20:08;;;;;;;6.53;5.80;;;;;;;;;;5073564;28;20051;-77
2021/06/02 06:23:12;;;;;;;6.53;5.47;;;;;;;;;;5089053;28;20093;-76
2021/06/02 06:26:07;;;;;;;6.85;5.82;;;;;;;;;;5067362;28;20078;-76
2021/06/02 06:29:09;;;;;;;7.38;6.00;;;;;;;;;;5067527;28;20040;-76
2021/06/02 06:31:53;;;;;;;7.90;5.90;;;;;;;;;;5053521;28;20047;-76
2021/06/02 06:34:38;;;;;;;7.05;5.72;;;;;;;;;;5068612;28;20523;-76
2021/06/02 06:37:22;;;;;;;6.95;5.68;;;;;;;;;;5053289;28;20051;-76
2021/06/02 06:40:07;;;;;;;6.43;5.63;;;;;;;;;;5053240;28;20495;-76
2021/06/02 06:42:54;;;;;;;7.57;5.60;;;;;;;;;;5067152;28;20109;-76
2021/06/02 06:45:40;;;;;;;6.40;5.38;;;;;;;;;;5067098;28;20162;-76
2021/06/02 06:48:24;;;;;;;6.53;5.63;;;;;;;;;;5067328;28;20545;-76
2021/06/02 06:51:11;;;;;;;6.80;5.65;;;;;;;;;;5067021;28;20048;-76
2021/06/02 06:53:56;;;;;;;6.55;5.55;;;;;;;;;;5053373;28;20086;-76
2021/06/02 06:56:41;;;;;;;7.18;5.75;;;;;;;;;;5066883;28;20052;-76
2021/06/02 06:59:26;;;;;;;7.10;5.80;;;;;;;;;;5053086;28;20111;-78
2021/06/02 07:02:11;;;;;;;7.78;5.85;;;;;;;;;;5066788;28;20408;-75
2021/06/02 07:04:57;;;;;;;8.27;5.50;;;;;;;;;;5052791;28;20062;-76
2021/06/02 07:07:42;;;;;;;5.93;5.32;;;;;;;;;;5065491;28;20508;-76
2021/06/02 07:10:27;;;;;;;5.93;5.30;;;;;;;;;;5067849;28;20063;-76
2021/06/02 07:13:12;;;;;;;6.20;5.32;;;;;;;;;;5066709;28;20047;-76
2021/06/02 07:15:57;;;;;;;7.45;5.53;;;;;;;;;;5052632;28;20128;-76
2021/06/02 07:18:41;;;;;;;7.22;5.50;;;;;;;;;;5052262;28;20086;-76
2021/06/02 07:21:26;;;;;;;6.80;4.95;;;;;;;;;;5066611;28;20044;-76
2021/06/02 07:24:11;;;;;;;7.28;6.05;;;;;;;;;;5065318;28;20421;-75
2021/06/02 07:26:56;;;;;;;6.30;5.22;;;;;;;;;;5051302;28;20440;-76
2021/06/02 07:29:41;;;;;;;7.43;5.47;;;;;;;;;;5052362;28;20082;-75
2021/06/02 07:32:25;;;;;;;5.78;4.95;;;;;;;;;;5052298;28;20550;-76
2021/06/02 07:35:10;;;;;;;6.88;5.50;;;;;;;;;;5051912;28;20039;-76
2021/06/02 07:37:55;;;;;;;6.75;5.10;;;;;;;;;;5066058;28;20408;-77
2021/06/02 07:40:39;;;;;;;6.30;5.25;;;;;;;;;;5067165;28;20102;-76
2021/06/02 07:43:24;;;;;;;6.72;5.63;;;;;;;;;;5065917;28;20069;-76
2021/06/02 07:46:09;;;;;;;7.70;5.35;;;;;;;;;;5051937;28;20553;-76
2021/06/02 07:48:54;;;;;;;6.82;5.60;;;;;;;;;;5065749;28;20721;-75
2021/06/02 07:51:38;;;;;;;6.68;4.90;;;;;;;;;;5051907;28;20126;-76
2021/06/02 07:54:23;;;;;;;5.78;5.18;;;;;;;;;;5065611;28;20105;-76
2021/06/02 07:57:07;;;;;;;7.18;5.45;;;;;;;;;;5066932;28;20590;-76
2021/06/02 07:59:52;;;;;;;6.97;5.10;;;;;;;;;;5051694;28;20073;-76
2021/06/02 08:02:37;;;;;;;6.97;5.30;;;;;;;;;;5051386;28;20046;-76
2021/06/02 08:05:21;;;;;;;5.80;5.20;;;;;;;;;;5065654;28;20397;-76
2021/06/02 08:08:07;;;;;;;5.40;4.90;;;;;;;;;;5065459;28;20105;-76
2021/06/02 08:10:52;;;;;;;6.07;4.82;;;;;;;;;;5051446;28;20043;-76
2021/06/02 08:13:37;;;;;;;6.32;5.47;;;;;;;;;;5066874;28;20039;-76
2021/06/02 08:16:21;;;;;;;6.32;5.07;;;;;;;;;;5065372;28;20079;-77
2021/06/02 08:19:06;;;;;;;5.38;4.80;;;;;;;;;;5051554;28;20519;-76
2021/06/02 08:21:51;;;;;;;5.78;4.72;;;;;;;;;;5065085;28;20048;-76
2021/06/02 08:24:39;;;;;;;6.28;5.30;;;;;;;;;;5051477;28;20043;-76
2021/06/02 08:27:24;;;;;;;6.20;4.82;;;;;;;;;;5051622;28;20098;-76
2021/06/02 08:30:09;;;;;;;5.60;5.05;;;;;;;;;;5064860;28;20459;-76
2021/06/02 08:32:53;;;;;;;6.43;5.43;;;;;;;;;;5065004;28;20676;-76
2021/06/02 08:35:38;;;;;;;6.40;5.13;;;;;;;;;;5065039;28;20448;-76
2021/06/02 08:38:22;;;;;;;5.70;5.13;;;;;;;;;;5064853;28;20185;-76
2021/06/02 08:41:07;;;;;;;6.15;5.20;;;;;;;;;;5065102;28;20117;-76
2021/06/02 08:43:52;;;;;;;6.15;5.40;;;;;;;;;;5050915;28;20044;-76
2021/06/02 08:46:37;;;;;;;6.03;5.05;;;;;;;;;;5066017;28;20412;-76
2021/06/02 08:49:22;;;;;;;5.88;5.28;;;;;;;;;;5050739;28;20047;-76
2021/06/02 08:52:07;;;;;;;6.13;5.40;;;;;;;;;;5051030;28;20074;-76
2021/06/02 08:54:51;;;;;;;5.82;5.03;;;;;;;;;;5064863;28;20485;-77
2021/06/02 08:57:42;;;;;;;7.80;5.22;;;;;;;;;;5050734;28;20044;-76
2021/06/02 09:00:27;;;;;;;6.72;5.28;;;;;;;;;;5064885;28;20051;-76
2021/06/02 09:03:12;;;;;;;7.38;5.32;;;;;;;;;;5064712;28;20210;-76
2021/06/02 09:05:57;;;;;;;5.47;4.70;;;;;;;;;;5064564;28;20118;-76
2021/06/02 09:08:42;;;;;;;5.65;4.85;;;;;;;;;;5064693;28;20062;-76
2021/06/02 09:11:27;;;;;;;5.70;5.10;;;;;;;;;;5050604;28;20054;-76
2021/06/02 09:14:21;;;;;;;7.28;5.22;;;;;;;;;;5050684;28;20042;-76
2021/06/02 09:17:15;;;;;;;6.75;5.20;;;;;;;;;;5064698;28;20413;-76
2021/06/02 09:20:00;;;;;;;6.78;5.03;;;;;;;;;;5051308;28;20574;-76
2021/06/02 09:22:44;;;;;;;5.95;4.72;;;;;;;;;;5064401;28;20039;-76
2021/06/02 09:25:29;;;;;;;6.63;5.35;;;;;;;;;;5064393;28;20083;-76
2021/06/02 09:28:14;;;;;;;6.55;5.13;;;;;;;;;;5064398;28;20109;-79
2021/06/02 09:31:05;;;;;;;6.25;5.13;;;;;;;;;;5068165;28;20218;-76
2021/06/02 09:33:50;;;;;;;6.47;5.18;;;;;;;;;;5054532;28;20042;-80
2021/06/02 09:36:35;;;;;;;5.43;4.65;;;;;;;;;;5068278;28;20048;-76
2021/06/02 09:39:21;;;;;;;6.07;5.00;;;;;;;;;;5068127;28;20051;-76
2021/06/02 09:42:16;;;;;;;5.50;4.90;;;;;;;;;;5068429;28;20500;-77
2021/06/02 09:45:01;;;;;;;6.03;5.38;;;;;;;;;;5068003;28;20110;-77
2021/06/02 09:47:47;;;;;;;6.35;5.03;;;;;;;;;;5069223;28;20404;-76
2021/06/02 09:50:32;;;;;;;6.88;5.38;;;;;;;;;;5068045;28;20108;-76
2021/06/02 09:53:17;;;;;;;6.07;4.90;;;;;;;;;;5053961;28;20425;-77
2021/06/02 09:56:02;;;;;;;7.40;5.47;;;;;;;;;;5067894;28;20051;-76
2021/06/02 09:58:55;;;;;;;6.45;5.38;;;;;;;;;;5053899;28;20262;-76
2021/06/02 10:01:53;;;;;;;6.43;5.15;;;;;;;;;;5067266;28;20045;-76
2021/06/02 10:04:42;;;;;;;7.07;5.10;;;;;;;;;;5067793;28;20614;-76
2021/06/02 10:07:26;;;;;;;6.65;5.35;;;;;;;;;;5054206;28;20057;-78
2021/06/02 10:10:15;;;;;;;7.18;5.25;;;;;;;;;;5067618;28;20417;-76
2021/06/02 10:13:03;;;;;;;7.80;5.70;;;;;;;;;;5067757;28;20034;-76
2021/06/02 10:15:49;;;;;;;6.45;4.97;;;;;;;;;;5068613;28;20117;-76
2021/06/02 10:18:37;;;;;;;7.13;5.43;;;;;;;;;;5053627;28;20060;-76
2021/06/02 10:21:21;;;;;;;6.28;5.35;;;;;;;;;;5067673;28;20508;-76
2021/06/02 10:24:07;;;;;;;6.25;5.18;;;;;;;;;;5067596;28;20047;-76
2021/06/02 10:26:52;;;;;;;7.60;5.50;;;;;;;;;;5067167;28;20078;-76
2021/06/02 10:29:36;;;;;;;7.40;5.18;;;;;;;;;;5067292;28;20447;-76
2021/06/02 10:32:21;;;;;;;5.68;4.95;;;;;;;;;;5053517;28;20115;-76
2021/06/02 10:35:06;;;;;;;6.65;5.30;;;;;;;;;;5067101;28;20091;-76
2021/06/02 10:37:51;;;;;;;7.05;5.10;;;;;;;;;;5053289;28;20039;-77
2021/06/02 10:40:35;;;;;;;6.07;5.10;;;;;;;;;;5067006;28;20094;-77
2021/06/02 10:43:21;;;;;;;7.65;5.50;;;;;;;;;;5067063;28;20040;-77
2021/06/02 10:46:06;;;;;;;7.13;4.90;;;;;;;;;;5052963;28;20043;-76
2021/06/02 10:48:55;;;;;;;6.60;5.15;;;;;;;;;;5067020;28;20043;-76
2021/06/02 10:51:40;;;;;;;7.65;5.07;;;;;;;;;;5066742;28;20055;-76
2021/06/02 10:54:35;;;;;;;5.85;5.25;;;;;;;;;;5068092;28;20532;-76
2021/06/02 10:57:20;;;;;;;6.50;5.00;;;;;;;;;;5053274;28;20044;-76
2021/06/02 11:00:10;;;;;;;7.13;4.97;;;;;;;;;;5066541;28;20098;-76
2021/06/02 11:03:15;;;;;;;6.05;5.10;;;;;;;;;;5052654;28;20082;-76
2021/06/02 11:06:08;;;;;;;7.43;5.10;;;;;;;;;;5067797;28;20047;-76
2021/06/02 11:08:53;;;;;;;6.90;5.47;;;;;;;;;;5067679;28;20047;-76
2021/06/02 11:11:41;;;;;;;5.43;4.90;;;;;;;;;;5067643;28;20075;-80
2021/06/02 11:14:26;;;;;;;5.78;4.95;;;;;;;;;;5052673;28;20046;-75
2021/06/02 11:17:12;;;;;;;6.78;4.93;;;;;;;;;;5066316;28;20052;-76
2021/06/02 11:19:57;;;;;;;6.50;5.05;;;;;;;;;;5066398;28;20056;-76
2021/06/02 11:22:41;;;;;;;7.85;5.35;;;;;;;;;;5052254;28;20647;-76
2021/06/02 11:25:26;;;;;;;6.88;5.38;;;;;;;;;;5066027;28;20059;-76
2021/06/02 11:28:30;;;;;;;6.65;5.25;;;;;;;;;;5066812;28;20090;-75
2021/06/02 11:31:25;;;;;;;9.52;5.53;;;;;;;;;;5066125;28;20039;-76
2021/06/02 11:34:26;;;;;;;8.40;5.38;;;;;;;;;;5052128;28;20051;-78
2021/06/02 11:37:14;;;;;;;6.80;4.97;;;;;;;;;;5066228;28;20704;-76
2021/06/02 11:40:00;;;;;;;8.52;5.22;;;;;;;;;;5065941;28;20421;-77
2021/06/02 11:42:47;;;;;;;7.50;5.80;;;;;;;;;;5051962;28;20574;-76
2021/06/02 11:45:31;;;;;;;6.22;5.45;;;;;;;;;;5052020;28;20114;-77
2021/06/02 11:48:20;;;;;;;9.10;5.40;;;;;;;;;;5052012;28;20047;-77
2021/06/02 11:51:06;;;;;;;7.20;5.32;;;;;;;;;;5051765;28;20207;-76
2021/06/02 11:53:51;;;;;;;8.00;4.95;;;;;;;;;;5064992;28;20090;-77
2021/06/02 11:56:35;;;;;;;8.85;5.53;;;;;;;;;;5065016;28;20128;-77
2021/06/02 11:59:20;;;;;;;6.43;5.43;;;;;;;;;;5066479;28;20134;-76
2021/06/02 12:02:14;;;;;;;8.95;6.18;;;;;;;;;;5051529;28;20094;-76
2021/06/02 12:05:15;;;;;;;7.50;5.43;;;;;;;;;;5051669;28;20083;-80
2021/06/02 12:08:00;;;;;;;8.25;6.00;;;;;;;;;;5065317;28;20481;-76
2021/06/02 12:10:47;;;;;;;8.00;5.70;;;;;;;;;;5065337;28;20109;-76
2021/06/02 12:13:34;;;;;;;7.93;5.78;;;;;;;;;;5066596;28;20044;-76
2021/06/02 12:16:25;;;;;;;7.43;5.50;;;;;;;;;;5065257;28;20071;-76
2021/06/02 12:19:10;;;;;;;6.85;5.38;;;;;;;;;;5064988;28;20055;-77
2021/06/02 12:21:54;;;;;;;6.80;5.32;;;;;;;;;;5051084;28;20043;-76
2021/06/02 12:24:39;;;;;;;7.35;5.60;;;;;;;;;;5051166;28;20063;-76
2021/06/02 12:27:23;;;;;;;6.95;5.43;;;;;;;;;;5065145;28;20128;-75
2021/06/02 12:30:12;;;;;;;6.50;5.38;;;;;;;;;;5065093;28;20039;-76
2021/06/02 12:32:57;;;;;;;8.13;5.45;;;;;;;;;;5050987;28;20639;-76
2021/06/02 12:35:42;;;;;;;7.97;5.65;;;;;;;;;;5051140;28;20051;-76
2021/06/02 12:38:28;;;;;;;7.15;5.35;;;;;;;;;;5051026;28;20079;-76
2021/06/02 12:41:12;;;;;;;8.32;5.97;;;;;;;;;;5064802;28;20094;-77
2021/06/02 12:44:02;;;;;;;9.00;5.53;;;;;;;;;;5064891;28;20113;-76
2021/06/02 12:47:02;;;;;;;8.60;5.35;;;;;;;;;;5051111;28;20170;-76
2021/06/02 12:49:48;;;;;;;7.68;5.20;;;;;;;;;;5065904;28;20047;-76
2021/06/02 12:52:32;;;;;;;8.48;5.35;;;;;;;;;;5064966;28;20695;-76
2021/06/02 12:55:17;;;;;;;6.60;5.18;;;;;;;;;;5064565;28;20063;-76
2021/06/02 12:58:06;;;;;;;6.97;5.80;;;;;;;;;;5065892;28;20121;-76
2021/06/02 13:00:50;;;;;;;7.30;5.40;;;;;;;;;;5065752;28;20145;-76
2021/06/02 13:03:36;;;;;;;5.57;5.03;;;;;;;;;;5064688;28;20455;-76
2021/06/02 13:06:22;;;;;;;7.28;5.18;;;;;;;;;;5064560;28;20047;-76
2021/06/02 13:09:10;;;;;;;6.65;5.45;;;;;;;;;;5064406;28;20046;-76
2021/06/02 13:11:55;;;;;;;8.93;5.60;;;;;;;;;;5050551;28;20040;-76
2021/06/02 13:14:41;;;;;;;8.38;5.93;;;;;;;;;;5050699;28;20063;-76
2021/06/02 13:17:38;;;;;;;8.73;5.70;;;;;;;;;;5065552;28;20047;-76
2021/06/02 13:20:35;;;;;;;7.75;5.10;;;;;;;;;;5064270;28;20075;-76
2021/06/02 13:23:20;;;;;;;9.10;5.40;;;;;;;;;;5064431;28;20059;-76
2021/06/02 13:26:14;;;;;;;6.30;5.68;;;;;;;;;;5065470;28;20095;-76
2021/06/02 13:28:59;;;;;;;8.38;5.90;;;;;;;;;;5064472;28;20051;-76
2021/06/02 13:31:45;;;;;;;6.32;5.20;;;;;;;;;;5064277;28;20051;-76
2021/06/02 13:34:37;;;;;;;6.80;5.35;;;;;;;;;;5050275;28;20634;-76
2021/06/02 13:37:24;;;;;;;7.57;5.53;;;;;;;;;;5050563;28;20110;-76
2021/06/02 13:40:20;;;;;;;7.10;5.07;;;;;;;;;;5064074;28;20470;-76
2021/06/02 13:43:18;;;;;;;8.63;6.00;;;;;;;;;;5064309;28;20043;-76
2021/06/02 13:46:09;;;;;;;6.70;5.57;;;;;;;;;;5065645;28;20615;-76
2021/06/02 13:48:54;;;;;;;7.65;5.70;;;;;;;;;;5065186;28;20046;-76
2021/06/02 13:51:43;;;;;;;7.45;5.10;;;;;;;;;;5063986;28;20106;-76
2021/06/02 13:54:29;;;;;;;8.55;5.68;;;;;;;;;;5063983;28;20044;-77
2021/06/02 13:57:14;;;;;;;9.30;5.50;;;;;;;;;;5049495;28;20086;-76
2021/06/02 13:59:58;;;;;;;6.95;5.50;;;;;;;;;;5064243;28;20569;-76
2021/06/02 14:02:43;;;;;;;8.13;5.45;;;;;;;;;;5064128;28;20272;-77
2021/06/02 14:05:27;;;;;;;7.47;5.35;;;;;;;;;;5050040;28;20880;-77
2021/06/02 14:08:12;;;;;;;7.18;5.63;;;;;;;;;;5063877;28;20062;-76
2021/06/02 14:10:56;;;;;;;7.32;5.30;;;;;;;;;;5063957;28;20086;-76
2021/06/02 14:13:41;;;;;;;7.10;5.30;;;;;;;;;;5063764;28;20091;-76
2021/06/02 14:16:25;;;;;;;7.53;5.20;;;;;;;;;;5066762;28;20044;-77
2021/06/02 14:19:10;;;;;;;8.60;5.15;;;;;;;;;;5068669;28;20055;-76
2021/06/02 14:21:54;;;;;;;8.55;5.18;;;;;;;;;;5053472;28;20047;-76
2021/06/02 14:24:40;;;;;;;6.45;5.18;;;;;;;;;;5053723;28;20050;-77
2021/06/02 14:27:25;;;;;;;7.78;5.32;;;;;;;;;;5067202;28;20075;-78
2021/06/02 14:30:10;;;;;;;7.57;5.38;;;;;;;;;;5067248;28;20814;-77
2021/06/02 14:32:54;;;;;;;9.27;5.85;;;;;;;;;;5053369;28;20039;-76
2021/06/02 14:35:39;;;;;;;7.63;5.40;;;;;;;;;;5068268;28;20090;-79
2021/06/02 14:38:23;;;;;;;6.85;5.70;;;;;;;;;;5067392;28;20116;-76
2021/06/02 14:41:08;;;;;;;6.05;5.25;;;;;;;;;;5053138;28;20051;-76
2021/06/02 14:43:53;;;;;;;6.97;5.60;;;;;;;;;;5052926;28;20216;-76
2021/06/02 14:46:38;;;;;;;7.60;4.95;;;;;;;;;;5067042;28;20040;-76
2021/06/02 14:49:23;;;;;;;7.90;5.60;;;;;;;;;;5066958;28;20451;-76
2021/06/02 14:52:07;;;;;;;6.45;4.90;;;;;;;;;;5067960;28;20043;-76
2021/06/02 14:54:52;;;;;;;7.60;5.68;;;;;;;;;;5066827;28;20050;-76
2021/06/02 14:57:36;;;;;;;9.93;5.72;;;;;;;;;;5066919;28;20042;-76
2021/06/02 15:00:21;;;;;;;8.25;5.40;;;;;;;;;;5066529;28;20166;-76
2021/06/02 15:03:06;;;;;;;6.85;5.10;;;;;;;;;;5067928;28;20040;-76
2021/06/02 15:05:53;;;;;;;6.65;5.68;;;;;;;;;;5066429;28;20483;-76
2021/06/02 15:08:38;;;;;;;8.80;5.95;;;;;;;;;;5052947;28;20055;-76
2021/06/02 15:11:22;;;;;;;8.70;5.78;;;;;;;;;;5066625;28;20040;-76
2021/06/02 15:14:07;;;;;;;6.97;5.63;;;;;;;;;;5067886;28;20570;-76
2021/06/02 15:16:51;;;;;;;6.57;5.57;;;;;;;;;;5066360;28;20044;-76
2021/06/02 15:19:36;;;;;;;7.07;5.22;;;;;;;;;;5066247;28;20085;-76
2021/06/02 15:22:20;;;;;;;8.15;5.50;;;;;;;;;;5066290;28;20086;-76
2021/06/02 15:25:05;;;;;;;6.57;5.60;;;;;;;;;;5066161;28;20142;-76
2021/06/02 15:27:54;;;;;;;6.63;5.40;;;;;;;;;;5066447;28;20038;-76
2021/06/02 15:30:38;;;;;;;7.47;5.88;;;;;;;;;;5066062;28;20043;-76
2021/06/02 15:33:23;;;;;;;6.93;5.15;;;;;;;;;;5066082;28;20061;-77
2021/06/02 15:36:08;;;;;;;7.05;5.10;;;;;;;;;;5065712;28;20093;-78
2021/06/02 15:38:53;;;;;;;7.43;5.47;;;;;;;;;;5052122;28;20051;-76
2021/06/02 15:41:41;;;;;;;6.55;5.70;;;;;;;;;;5051638;28;20040;-76
2021/06/02 15:44:25;;;;;;;8.02;5.07;;;;;;;;;;5065825;28;20401;-76
2021/06/02 15:47:10;;;;;;;7.10;5.03;;;;;;;;;;5065440;28;20043;-76
2021/06/02 15:49:55;;;;;;;7.80;5.20;;;;;;;;;;5065642;28;20093;-76
2021/06/02 15:52:40;;;;;;;6.40;5.13;;;;;;;;;;5066672;28;20097;-76
2021/06/02 15:55:26;;;;;;;6.68;5.20;;;;;;;;;;5065746;28;20048;-76
2021/06/02 15:58:11;;;;;;;7.53;5.57;;;;;;;;;;5065716;28;20082;-79
2021/06/02 16:00:56;;;;;;;6.40;4.93;;;;;;;;;;5065418;28;20042;-77
2021/06/02 16:03:40;;;;;;;6.57;5.47;;;;;;;;;;5065432;28;20176;-76
2021/06/02 16:06:24;;;;;;;7.63;5.30;;;;;;;;;;5065254;28;20055;-77
2021/06/02 16:09:09;;;;;;;6.63;5.05;;;;;;;;;;5065479;28;20503;-76
2021/06/02 16:11:53;;;;;;;6.28;5.03;;;;;;;;;;5051389;28;20074;-80
2021/06/02 16:14:39;;;;;;;5.93;5.30;;;;;;;;;;5051371;28;20059;-76
2021/06/02 16:17:23;;;;;;;5.93;4.75;;;;;;;;;;5051275;28;20055;-76
2021/06/02 16:20:08;;;;;;;6.55;4.95;;;;;;;;;;5066900;28;20113;-79
2021/06/02 16:22:53;;;;;;;7.90;5.32;;;;;;;;;;5065147;28;20043;-76
2021/06/02 16:25:38;;;;;;;7.28;5.28;;;;;;;;;;5050773;28;20067;-76
2021/06/02 16:28:23;;;;;;;6.97;4.95;;;;;;;;;;5065061;28;20089;-76
2021/06/02 16:31:08;;;;;;;6.53;5.32;;;;;;;;;;5065137;28;20062;-76
2021/06/02 16:33:54;;;;;;;7.60;5.20;;;;;;;;;;5051053;28;20127;-76
2021/06/02 16:36:39;;;;;;;8.40;5.18;;;;;;;;;;5064838;28;20051;-76
2021/06/02 16:39:24;;;;;;;6.45;5.20;;;;;;;;;;5050718;28;20079;-79
2021/06/02 16:42:08;;;;;;;6.68;4.50;;;;;;;;;;5064685;28;20546;-76
2021/06/02 16:44:53;;;;;;;6.25;5.50;;;;;;;;;;5050736;28;20543;-76
2021/06/02 16:47:38;;;;;;;5.88;4.80;;;;;;;;;;5064631;28;20044;-76